MiSS Peggy — WCH4613 — position and weather

sailwx.info

Track history (hours):
 
Tides and Currents Weather Stations Pressure Air Temp Water Temp Dewpoint Dewpoint Depression Visibility Wind Speed Wind Dir Waves Ship Positions

MiSS Peggy

Owner: The Tug Miss Peggy, L.L.C., SUGAR LAND, TX. More information available from US FCC via Universal Licensing System and Coast Guard Vessel Documentation Center.

Last reported at 2018-Feb-22 07:15 UTC. Time now 2018-Feb-22 09:23 UTC.
Position N 29°47' W 095°04'.

Length 16 m.

Type: Tug. MMSI: 366935050.

Date/timePositionNaut miles runAvg speedWind from/ knotsBaromVisibWave heightAir tempDewpointWater temp
2018-Feb-22 07:15N 29°47' W 095°04'0 0.0
2018-Feb-21 12:56N 29°48' W 095°04'0 0.1
2018-Feb-21 11:03N 29°47' W 095°04'0 0.0
2018-Feb-21 11:00N 29°47' W 095°04'0 0.0
2018-Feb-21 10:26N 29°47' W 095°04'6 2.2
2018-Feb-21 07:40N 29°45' W 095°10'1 5.5
2018-Feb-21 07:27N 29°44' W 095°09'6 1.4
2018-Feb-21 03:26N 29°48' W 095°04'0 0.0
2018-Feb-21 03:00N 29°48' W 095°04'0 0.0
2018-Feb-21 02:30N 29°48' W 095°04'1 0.1
2018-Feb-20 14:01N 29°46' W 095°05'0 0.0
2018-Feb-20 13:59N 29°46' W 095°05'0 0.0
2018-Feb-20 13:29N 29°46' W 095°05'1 0.4
2018-Feb-20 10:09N 29°47' W 095°04'6 3.4
2018-Feb-20 08:18N 29°45' W 095°11'0 0.2
2018-Feb-20 07:57N 29°45' W 095°11'1 1.8
2018-Feb-20 07:30N 29°45' W 095°10'3 5.6
2018-Feb-20 06:59N 29°44' W 095°07'4 4.6
2018-Feb-20 06:05N 29°48' W 095°04'0 0.0
2018-Feb-20 06:01N 29°48' W 095°04'1 2.0
2018-Feb-20 05:16N 29°46' W 095°05'1 3.4
2018-Feb-20 04:50N 29°47' W 095°04'0 0.2
2018-Feb-20 04:30N 29°48' W 095°04'0 0.0
2018-Feb-20 04:01N 29°48' W 095°04'0 0.0
2018-Feb-20 03:30N 29°48' W 095°04'0 0.2
2018-Feb-20 03:00N 29°47' W 095°04'0 0.2
2018-Feb-20 02:31N 29°48' W 095°04'0 0.2
2018-Feb-20 01:58N 29°47' W 095°04'0 0.1
2018-Feb-20 01:14N 29°48' W 095°04'0 0.2
2018-Feb-20 00:53N 29°47' W 095°04'0 0.0
2018-Feb-20 00:31N 29°47' W 095°04'0 0.2
2018-Feb-20 00:00N 29°48' W 095°04'0 0.1
2018-Feb-19 23:05N 29°47' W 095°04'0 0.0
2018-Feb-19 23:00N 29°47' W 095°04'2 1.6
2018-Feb-19 21:49N 29°46' W 095°05'1 0.2
2018-Feb-19 14:09N 29°45' W 095°06'0 0.0
2018-Feb-19 14:00N 29°45' W 095°06'0 0.0
2018-Feb-19 13:30N 29°45' W 095°06'0 0.1
2018-Feb-19 11:27N 29°45' W 095°06'3 6.1
2018-Feb-19 10:58N 29°47' W 095°04'0 0.0
2018-Feb-19 10:20N 29°47' W 095°04'0 0.0
2018-Feb-19 10:00N 29°47' W 095°04'0 0.4
2018-Feb-19 09:30N 29°47' W 095°04'0 0.4
2018-Feb-19 09:00N 29°47' W 095°04'0 0.0
2018-Feb-19 08:30N 29°47' W 095°04'0 0.0
2018-Feb-19 08:00N 29°47' W 095°04'0 0.0
2018-Feb-19 07:28N 29°47' W 095°04'0 0.0
2018-Feb-19 06:58N 29°47' W 095°04'0 0.1
2018-Feb-19 06:25N 29°47' W 095°04'0 0.3
2018-Feb-19 05:59N 29°48' W 095°04'0 0.0
2018-Feb-19 05:30N 29°48' W 095°04'0 0.0
2018-Feb-19 05:00N 29°48' W 095°04'0 0.0
2018-Feb-19 04:30N 29°48' W 095°04'0 0.3
2018-Feb-19 04:00N 29°47' W 095°04'0 0.0
2018-Feb-19 03:23N 29°47' W 095°04'3 1.0
2018-Feb-19 00:40N 29°45' W 095°06'1 7.2
2018-Feb-19 00:29N 29°44' W 095°07'3 5.0
2018-Feb-18 23:55N 29°45' W 095°10'1 3.4
2018-Feb-18 23:29N 29°44' W 095°09'4 4.8
2018-Feb-18 22:41N 29°46' W 095°05'0 1.3
2018-Feb-18 22:29N 29°46' W 095°05'4 1.3
2018-Feb-18 19:36N 29°44' W 095°01'1 1.2
2018-Feb-18 18:35N 29°44' W 095°03'3 5.3
2018-Feb-18 17:58N 29°47' W 095°05'1 1.4
2018-Feb-18 17:29N 29°46' W 095°05'2 1.5
2018-Feb-18 16:18N 29°48' W 095°04'0 0.4
2018-Feb-18 16:00N 29°47' W 095°04'0 0.0
2018-Feb-18 15:30N 29°47' W 095°04'0 0.0
2018-Feb-18 15:00N 29°47' W 095°04'0 0.0
2018-Feb-18 14:30N 29°47' W 095°04'1 0.9
2018-Feb-18 12:49N 29°46' W 095°05'1 0.1
2018-Feb-18 00:54N 29°46' W 095°06'0 0.0
2018-Feb-18 00:28N 29°46' W 095°06'0 0.0
2018-Feb-17 23:58N 29°46' W 095°06'0 0.0
2018-Feb-17 23:13N 29°46' W 095°06'1 0.1
2018-Feb-17 11:35N 29°46' W 095°05'0 1.5
2018-Feb-17 11:20N 29°46' W 095°05'2 6.8
2018-Feb-17 11:00N 29°44' W 095°03'2 2.3
2018-Feb-17 10:15N 29°44' W 095°01'0 1.3
2018-Feb-17 09:59N 29°44' W 095°01'0 0.0
2018-Feb-17 08:45N 29°44' W 095°01'0 0.0
2018-Feb-17 08:28N 29°44' W 095°01'0 0.0
2018-Feb-17 07:59N 29°44' W 095°01'0 0.0
2018-Feb-17 06:11N 29°44' W 095°01'4 6.6
2018-Feb-17 05:37N 29°46' W 095°05'1 1.6
2018-Feb-17 05:02N 29°47' W 095°04'0 3.8
2018-Feb-17 04:58N 29°47' W 095°05'2 3.4
2018-Feb-17 04:29N 29°45' W 095°04'2 4.9
2018-Feb-17 03:59N 29°44' W 095°02'1 0.9
2018-Feb-17 03:26N 29°43' W 095°01'0 0.2
2018-Feb-17 02:59N 29°43' W 095°01'0 0.0
2018-Feb-17 02:30N 29°43' W 095°01'1 0.2
2018-Feb-16 23:32N 29°44' W 095°01'0 2.5
2018-Feb-16 23:22N 29°44' W 095°02'3 6.4
2018-Feb-16 22:50N 29°46' W 095°05'1 3.6
2018-Feb-16 22:29N 29°45' W 095°04'2 1.6
2018-Feb-16 20:55N 29°44' W 095°01'0 0.0
2018-Feb-16 19:01N 29°44' W 095°01'0 0.0
2018-Feb-16 18:56N 29°44' W 095°01'0 0.0
2018-Feb-16 18:29N 29°44' W 095°01'0 0.0
2018-Feb-16 18:00N 29°44' W 095°01'0 0.0
2018-Feb-16 17:29N 29°44' W 095°01'0 0.0
2018-Feb-16 17:00N 29°44' W 095°01'0 0.0
2018-Feb-16 16:30N 29°44' W 095°01'0 0.0
2018-Feb-16 16:00N 29°44' W 095°01'0 0.0
2018-Feb-16 15:30N 29°44' W 095°01'0 0.0
2018-Feb-16 15:00N 29°44' W 095°01'0 0.0
2018-Feb-16 14:30N 29°44' W 095°01'0 0.0
2018-Feb-16 14:00N 29°44' W 095°01'0 0.0
2018-Feb-16 13:30N 29°44' W 095°01'0 0.0
2018-Feb-16 12:47N 29°44' W 095°01'0 0.0
2018-Feb-16 12:26N 29°44' W 095°01'1 1.1
2018-Feb-16 11:21N 29°44' W 095°03'3 0.8
2018-Feb-16 07:37N 29°46' W 095°05'1 6.9
2018-Feb-16 07:31N 29°47' W 095°05'2 0.2
2018-Feb-15 17:10N 29°45' W 095°06'1 3.4
2018-Feb-15 16:59N 29°45' W 095°06'2 0.3
2018-Feb-15 09:36N 29°47' W 095°04'0 0.2
2018-Feb-15 08:54N 29°47' W 095°04'0 0.1
2018-Feb-15 08:28N 29°47' W 095°04'0 0.0
2018-Feb-15 08:00N 29°47' W 095°04'0 0.0
2018-Feb-15 07:24N 29°47' W 095°04'0 0.0
2018-Feb-15 06:51N 29°47' W 095°04'0 0.0
2018-Feb-15 06:21N 29°47' W 095°04'0 0.0
2018-Feb-15 05:55N 29°47' W 095°04'0 0.0
2018-Feb-15 05:28N 29°47' W 095°04'0 0.0
2018-Feb-15 05:00N 29°47' W 095°04'0 0.0
2018-Feb-15 04:22N 29°47' W 095°04'0 0.0
2018-Feb-15 03:54N 29°47' W 095°04'0 0.0
2018-Feb-15 03:28N 29°47' W 095°04'0 0.0
2018-Feb-15 02:56N 29°47' W 095°04'0 0.9
2018-Feb-15 02:29N 29°47' W 095°04'1 0.9
2018-Feb-15 01:12N 29°46' W 095°05'0 0.7
2018-Feb-15 01:00N 29°46' W 095°05'0 0.0
2018-Feb-15 00:19N 29°46' W 095°05'0 0.0
2018-Feb-14 23:59N 29°46' W 095°05'0 0.0
2018-Feb-14 23:30N 29°46' W 095°05'0 0.0
2018-Feb-14 22:52N 29°46' W 095°05'0 0.0
2018-Feb-14 22:27N 29°46' W 095°05'0 0.0
2018-Feb-14 22:00N 29°46' W 095°05'0 0.0
2018-Feb-14 21:30N 29°46' W 095°05'0 0.0
2018-Feb-14 20:58N 29°46' W 095°05'0 0.0
2018-Feb-14 20:30N 29°46' W 095°05'0 0.0
2018-Feb-14 20:00N 29°46' W 095°05'0 0.0
2018-Feb-14 19:30N 29°46' W 095°05'0 0.0
2018-Feb-14 18:55N 29°46' W 095°05'0 0.4
2018-Feb-14 18:25N 29°46' W 095°05'1 2.9
2018-Feb-14 17:59N 29°47' W 095°04'0 0.1
2018-Feb-14 15:31N 29°47' W 095°04'0 2.9
2018-Feb-14 15:30N 29°47' W 095°04'0 0.0
2018-Feb-13 23:17N 29°47' W 095°04'0 0.0
2018-Feb-13 22:21N 29°47' W 095°04'0 0.0
2018-Feb-13 12:19N 29°48' W 095°04'  
Track history (hours):
 
Tides and Currents Weather Stations Pressure Air Temp Water Temp Dewpoint Dewpoint Depression Visibility Wind Speed Wind Dir Waves Ship Positions

MiSS Peggy

Owner: The Tug Miss Peggy, L.L.C., SUGAR LAND, TX. More information available from US FCC via Universal Licensing System and Coast Guard Vessel Documentation Center.

Last reported at 2018-Feb-22 07:15 UTC. Time now 2018-Feb-22 09:23 UTC.
Position N 29°47' W 095°04'.

Length 16 m.

Type: Tug. MMSI: 366935050.

Date/timePositionNaut miles runAvg speedWind from/ knotsBaromVisibWave heightAir tempDewpointWater temp
2018-Feb-22 07:15N 29°47' W 095°04'0 0.0
2018-Feb-21 12:56N 29°48' W 095°04'0 0.1
2018-Feb-21 11:03N 29°47' W 095°04'0 0.0
2018-Feb-21 11:00N 29°47' W 095°04'0 0.0
2018-Feb-21 10:26N 29°47' W 095°04'6 2.2
2018-Feb-21 07:40N 29°45' W 095°10'1 5.5
2018-Feb-21 07:27N 29°44' W 095°09'6 1.4
2018-Feb-21 03:26N 29°48' W 095°04'0 0.0
2018-Feb-21 03:00N 29°48' W 095°04'0 0.0
2018-Feb-21 02:30N 29°48' W 095°04'1 0.1
2018-Feb-20 14:01N 29°46' W 095°05'0 0.0
2018-Feb-20 13:59N 29°46' W 095°05'0 0.0
2018-Feb-20 13:29N 29°46' W 095°05'1 0.4
2018-Feb-20 10:09N 29°47' W 095°04'6 3.4
2018-Feb-20 08:18N 29°45' W 095°11'0 0.2
2018-Feb-20 07:57N 29°45' W 095°11'1 1.8
2018-Feb-20 07:30N 29°45' W 095°10'3 5.6
2018-Feb-20 06:59N 29°44' W 095°07'4 4.6
2018-Feb-20 06:05N 29°48' W 095°04'0 0.0
2018-Feb-20 06:01N 29°48' W 095°04'1 2.0
2018-Feb-20 05:16N 29°46' W 095°05'1 3.4
2018-Feb-20 04:50N 29°47' W 095°04'0 0.2
2018-Feb-20 04:30N 29°48' W 095°04'0 0.0
2018-Feb-20 04:01N 29°48' W 095°04'0 0.0
2018-Feb-20 03:30N 29°48' W 095°04'0 0.2
2018-Feb-20 03:00N 29°47' W 095°04'0 0.2
2018-Feb-20 02:31N 29°48' W 095°04'0 0.2
2018-Feb-20 01:58N 29°47' W 095°04'0 0.1
2018-Feb-20 01:14N 29°48' W 095°04'0 0.2
2018-Feb-20 00:53N 29°47' W 095°04'0 0.0
2018-Feb-20 00:31N 29°47' W 095°04'0 0.2
2018-Feb-20 00:00N 29°48' W 095°04'0 0.1
2018-Feb-19 23:05N 29°47' W 095°04'0 0.0
2018-Feb-19 23:00N 29°47' W 095°04'2 1.6
2018-Feb-19 21:49N 29°46' W 095°05'1 0.2
2018-Feb-19 14:09N 29°45' W 095°06'0 0.0
2018-Feb-19 14:00N 29°45' W 095°06'0 0.0
2018-Feb-19 13:30N 29°45' W 095°06'0 0.1
2018-Feb-19 11:27N 29°45' W 095°06'3 6.1
2018-Feb-19 10:58N 29°47' W 095°04'0 0.0
2018-Feb-19 10:20N 29°47' W 095°04'0 0.0
2018-Feb-19 10:00N 29°47' W 095°04'0 0.4
2018-Feb-19 09:30N 29°47' W 095°04'0 0.4
2018-Feb-19 09:00N 29°47' W 095°04'0 0.0
2018-Feb-19 08:30N 29°47' W 095°04'0 0.0
2018-Feb-19 08:00N 29°47' W 095°04'0 0.0
2018-Feb-19 07:28N 29°47' W 095°04'0 0.0
2018-Feb-19 06:58N 29°47' W 095°04'0 0.1
2018-Feb-19 06:25N 29°47' W 095°04'0 0.3
2018-Feb-19 05:59N 29°48' W 095°04'0 0.0
2018-Feb-19 05:30N 29°48' W 095°04'0 0.0
2018-Feb-19 05:00N 29°48' W 095°04'0 0.0
2018-Feb-19 04:30N 29°48' W 095°04'0 0.3
2018-Feb-19 04:00N 29°47' W 095°04'0 0.0
2018-Feb-19 03:23N 29°47' W 095°04'3 1.0
2018-Feb-19 00:40N 29°45' W 095°06'1 7.2
2018-Feb-19 00:29N 29°44' W 095°07'3 5.0
2018-Feb-18 23:55N 29°45' W 095°10'1 3.4
2018-Feb-18 23:29N 29°44' W 095°09'4 4.8
2018-Feb-18 22:41N 29°46' W 095°05'0 1.3
2018-Feb-18 22:29N 29°46' W 095°05'4 1.3
2018-Feb-18 19:36N 29°44' W 095°01'1 1.2
2018-Feb-18 18:35N 29°44' W 095°03'3 5.3
2018-Feb-18 17:58N 29°47' W 095°05'1 1.4
2018-Feb-18 17:29N 29°46' W 095°05'2 1.5
2018-Feb-18 16:18N 29°48' W 095°04'0 0.4
2018-Feb-18 16:00N 29°47' W 095°04'0 0.0
2018-Feb-18 15:30N 29°47' W 095°04'0 0.0
2018-Feb-18 15:00N 29°47' W 095°04'0 0.0
2018-Feb-18 14:30N 29°47' W 095°04'1 0.9
2018-Feb-18 12:49N 29°46' W 095°05'1 0.1
2018-Feb-18 00:54N 29°46' W 095°06'0 0.0
2018-Feb-18 00:28N 29°46' W 095°06'0 0.0
2018-Feb-17 23:58N 29°46' W 095°06'0 0.0
2018-Feb-17 23:13N 29°46' W 095°06'1 0.1
2018-Feb-17 11:35N 29°46' W 095°05'0 1.5
2018-Feb-17 11:20N 29°46' W 095°05'2 6.8
2018-Feb-17 11:00N 29°44' W 095°03'2 2.3
2018-Feb-17 10:15N 29°44' W 095°01'0 1.3
2018-Feb-17 09:59N 29°44' W 095°01'0 0.0
2018-Feb-17 08:45N 29°44' W 095°01'0 0.0
2018-Feb-17 08:28N 29°44' W 095°01'0 0.0
2018-Feb-17 07:59N 29°44' W 095°01'0 0.0
2018-Feb-17 06:11N 29°44' W 095°01'4 6.6
2018-Feb-17 05:37N 29°46' W 095°05'1 1.6
2018-Feb-17 05:02N 29°47' W 095°04'0 3.8
2018-Feb-17 04:58N 29°47' W 095°05'2 3.4
2018-Feb-17 04:29N 29°45' W 095°04'2 4.9
2018-Feb-17 03:59N 29°44' W 095°02'1 0.9
2018-Feb-17 03:26N 29°43' W 095°01'0 0.2
2018-Feb-17 02:59N 29°43' W 095°01'0 0.0
2018-Feb-17 02:30N 29°43' W 095°01'1 0.2
2018-Feb-16 23:32N 29°44' W 095°01'0 2.5
2018-Feb-16 23:22N 29°44' W 095°02'3 6.4
2018-Feb-16 22:50N 29°46' W 095°05'1 3.6
2018-Feb-16 22:29N 29°45' W 095°04'2 1.6
2018-Feb-16 20:55N 29°44' W 095°01'0 0.0
2018-Feb-16 19:01N 29°44' W 095°01'0 0.0
2018-Feb-16 18:56N 29°44' W 095°01'0 0.0
2018-Feb-16 18:29N 29°44' W 095°01'0 0.0
2018-Feb-16 18:00N 29°44' W 095°01'0 0.0
2018-Feb-16 17:29N 29°44' W 095°01'0 0.0
2018-Feb-16 17:00N 29°44' W 095°01'0 0.0
2018-Feb-16 16:30N 29°44' W 095°01'0 0.0
2018-Feb-16 16:00N 29°44' W 095°01'0 0.0
2018-Feb-16 15:30N 29°44' W 095°01'0 0.0
2018-Feb-16 15:00N 29°44' W 095°01'0 0.0
2018-Feb-16 14:30N 29°44' W 095°01'0 0.0
2018-Feb-16 14:00N 29°44' W 095°01'0 0.0
2018-Feb-16 13:30N 29°44' W 095°01'0 0.0
2018-Feb-16 12:47N 29°44' W 095°01'0 0.0
2018-Feb-16 12:26N 29°44' W 095°01'1 1.1
2018-Feb-16 11:21N 29°44' W 095°03'3 0.8
2018-Feb-16 07:37N 29°46' W 095°05'1 6.9
2018-Feb-16 07:31N 29°47' W 095°05'2 0.2
2018-Feb-15 17:10N 29°45' W 095°06'1 3.4
2018-Feb-15 16:59N 29°45' W 095°06'2 0.3
2018-Feb-15 09:36N 29°47' W 095°04'0 0.2
2018-Feb-15 08:54N 29°47' W 095°04'0 0.1
2018-Feb-15 08:28N 29°47' W 095°04'0 0.0
2018-Feb-15 08:00N 29°47' W 095°04'0 0.0
2018-Feb-15 07:24N 29°47' W 095°04'0 0.0
2018-Feb-15 06:51N 29°47' W 095°04'0 0.0
2018-Feb-15 06:21N 29°47' W 095°04'0 0.0
2018-Feb-15 05:55N 29°47' W 095°04'0 0.0
2018-Feb-15 05:28N 29°47' W 095°04'0 0.0
2018-Feb-15 05:00N 29°47' W 095°04'0 0.0
2018-Feb-15 04:22N 29°47' W 095°04'0 0.0
2018-Feb-15 03:54N 29°47' W 095°04'0 0.0
2018-Feb-15 03:28N 29°47' W 095°04'0 0.0
2018-Feb-15 02:56N 29°47' W 095°04'0 0.9
2018-Feb-15 02:29N 29°47' W 095°04'1 0.9
2018-Feb-15 01:12N 29°46' W 095°05'0 0.7
2018-Feb-15 01:00N 29°46' W 095°05'0 0.0
2018-Feb-15 00:19N 29°46' W 095°05'0 0.0
2018-Feb-14 23:59N 29°46' W 095°05'0 0.0
2018-Feb-14 23:30N 29°46' W 095°05'0 0.0
2018-Feb-14 22:52N 29°46' W 095°05'0 0.0
2018-Feb-14 22:27N 29°46' W 095°05'0 0.0
2018-Feb-14 22:00N 29°46' W 095°05'0 0.0
2018-Feb-14 21:30N 29°46' W 095°05'0 0.0
2018-Feb-14 20:58N 29°46' W 095°05'0 0.0
2018-Feb-14 20:30N 29°46' W 095°05'0 0.0
2018-Feb-14 20:00N 29°46' W 095°05'0 0.0
2018-Feb-14 19:30N 29°46' W 095°05'0 0.0
2018-Feb-14 18:55N 29°46' W 095°05'0 0.4
2018-Feb-14 18:25N 29°46' W 095°05'1 2.9
2018-Feb-14 17:59N 29°47' W 095°04'0 0.1
2018-Feb-14 15:31N 29°47' W 095°04'0 2.9
2018-Feb-14 15:30N 29°47' W 095°04'0 0.0
2018-Feb-13 23:17N 29°47' W 095°04'0 0.0
2018-Feb-13 22:21N 29°47' W 095°04'0 0.0
2018-Feb-13 12:19N 29°48' W 095°04'  

Dump ship's entire track history